Waubay, South Dakota
Current Conditions -  °F | °C
As of 9:53 AM on Monday 26 Jan 2015 (Local Time) from KATY Reporting Station
Clear Clear  
Wind Chill: 29°   Ceiling: Unl
Heat Index: 37°   Visibility: 10mi
Dew Point: 31°   Wind: 12mph
Humidity: 79%   Direction: 290°WNW
Pressure: 29.82"   Gusts: NA
Location:  45.33°N, 97.31°W
Report Text: KATY 261553Z AUTO 29010KT 10SM CLR 03/M01 A2982 RMK AO2 SLP115 T00281006
Loading
Personal Weather Stations






























Interactive Weather Map New forecast layout! Learn more

10-Day Weather Forecast

Advertisements
Track Severe Weather on mobile